createdAt,value
2022-09-12T00:01:41.359Z,100423.16
2022-09-12T00:03:45.275Z,100422.31
2022-09-12T00:05:49.411Z,100426.81
2022-09-12T00:07:53.076Z,100422.44
2022-09-12T00:09:56.543Z,100424.31
2022-09-12T00:12:00.016Z,100419.94
2022-09-12T00:14:04.447Z,100429.81
2022-09-12T00:16:08.490Z,100427.28
2022-09-12T00:18:16.425Z,100420.25
2022-09-12T00:20:20.243Z,100416.69
2022-09-12T00:22:23.734Z,100425.75
2022-09-12T00:24:27.223Z,100422.06
2022-09-12T00:26:30.922Z,100424.88
2022-09-12T00:28:35.975Z,100427.56
2022-09-12T00:30:43.268Z,100436.44
2022-09-12T00:32:46.891Z,100439.81
2022-09-12T00:34:51.915Z,100434.44
2022-09-12T00:36:55.624Z,100431.78
2022-09-12T00:38:59.201Z,100434.44
2022-09-12T00:41:02.804Z,100432.63
2022-09-12T00:43:06.750Z,100436.97
2022-09-12T00:45:24.498Z,100443.19
2022-09-12T00:47:30.963Z,100441.50
2022-09-12T00:49:37.864Z,100436.97
2022-09-12T00:51:45.211Z,100431.47
2022-09-12T00:53:51.119Z,100431.63
2022-09-12T00:55:56.665Z,100425.44
2022-09-12T00:58:04.843Z,100424.59
2022-09-12T01:00:14.996Z,100428.13
2022-09-12T01:02:18.780Z,100424.72
2022-09-12T01:04:25.085Z,100426.56
2022-09-12T01:06:31.724Z,100427.56
2022-09-12T01:08:38.624Z,100415.31
2022-09-12T01:10:43.992Z,100420.00
2022-09-12T01:12:47.846Z,100414.94
2022-09-12T01:14:51.529Z,100426.78
2022-09-12T01:16:55.711Z,100427.94
2022-09-12T01:19:10.341Z,100420.06
2022-09-12T01:21:21.327Z,100421.34
2022-09-12T01:24:02.667Z,100409.94
2022-09-12T01:26:26.226Z,100420.78
2022-09-12T01:28:37.634Z,100414.03
2022-09-12T01:30:56.436Z,100410.69
2022-09-12T01:33:27.605Z,100408.28
2022-09-12T01:35:39.694Z,100406.75
2022-09-12T01:37:54.995Z,100409.59
2022-09-12T01:40:05.286Z,100406.75
2022-09-12T01:42:16.902Z,100410.28
2022-09-12T01:44:28.687Z,100410.13
2022-09-12T01:46:43.166Z,100402.94
2022-09-12T01:48:52.776Z,100410.97
2022-09-12T01:51:04.659Z,100406.31
2022-09-12T01:53:13.682Z,100403.66
2022-09-12T01:55:22.682Z,100402.66
2022-09-12T01:57:31.143Z,100399.28
2022-09-12T01:59:40.030Z,100406.63
2022-09-12T02:01:50.110Z,100404.78
2022-09-12T02:04:02.743Z,100402.25
2022-09-12T02:06:10.492Z,100407.47
2022-09-12T02:08:19.453Z,100408.28
2022-09-12T02:10:31.802Z,100416.31
2022-09-12T02:12:43.743Z,100408.28
2022-09-12T02:14:52.540Z,100417.03
2022-09-12T02:17:02.563Z,100411.53
2022-09-12T02:19:12.074Z,100414.03
2022-09-12T02:21:15.613Z,100412.91
2022-09-12T02:23:24.285Z,100410.91
2022-09-12T02:25:30.616Z,100415.28
2022-09-12T02:27:38.497Z,100411.78
2022-09-12T02:29:42.421Z,100420.47
2022-09-12T02:31:48.825Z,100411.78
2022-09-12T02:34:06.772Z,100414.44
2022-09-12T02:36:24.171Z,100410.09
2022-09-12T02:38:34.797Z,100415.44
2022-09-12T02:40:39.558Z,100412.75
2022-09-12T02:42:43.729Z,100412.91
2022-09-12T02:44:47.262Z,100412.91
2022-09-12T02:46:54.957Z,100410.25
2022-09-12T02:49:00.506Z,100413.06
2022-09-12T02:51:04.607Z,100411.38
2022-09-12T02:53:09.907Z,100408.03
2022-09-12T02:55:15.245Z,100413.50
2022-09-12T02:57:22.601Z,100409.31
2022-09-12T02:59:27.362Z,100411.28
2022-09-12T03:01:45.590Z,100407.91
2022-09-12T03:04:01.557Z,100404.53
2022-09-12T03:06:12.775Z,100402.16
2022-09-12T03:08:39.816Z,100398.78
2022-09-12T03:10:59.957Z,100397.22
2022-09-12T03:13:15.648Z,100397.38
2022-09-12T03:15:37.844Z,100396.72
2022-09-12T03:17:53.169Z,100399.53
2022-09-12T03:20:04.193Z,100404.31
2022-09-12T03:22:17.161Z,100401.66
2022-09-12T03:24:26.032Z,100402.78
2022-09-12T03:26:34.018Z,100409.97
2022-09-12T03:28:39.186Z,100402.94
2022-09-12T03:30:44.429Z,100409.25
2022-09-12T03:32:50.385Z,100408.59
2022-09-12T03:34:53.940Z,100407.72
2022-09-12T03:36:57.586Z,100422.94
2022-09-12T03:39:02.595Z,100415.88
2022-09-12T03:41:07.490Z,100415.88
2022-09-12T03:43:11.700Z,100408.84
2022-09-12T03:45:16.783Z,100416.88
2022-09-12T03:47:20.351Z,100425.75
2022-09-12T03:49:24.099Z,100429.25
2022-09-12T03:51:27.793Z,100426.59
2022-09-12T03:53:31.490Z,100426.59
2022-09-12T03:55:36.439Z,100427.44
2022-09-12T03:57:40.742Z,100425.59
2022-09-12T03:59:44.516Z,100423.75
2022-09-12T04:01:48.091Z,100415.59
2022-09-12T04:03:54.036Z,100411.09
2022-09-12T04:05:59.230Z,100418.16
2022-09-12T04:08:02.938Z,100422.31
2022-09-12T04:10:07.142Z,100414.31
2022-09-12T04:12:12.924Z,100420.38
2022-09-12T04:14:16.586Z,100411.38
2022-09-12T04:16:20.407Z,100415.69
2022-09-12T04:18:24.032Z,100409.38
2022-09-12T04:20:27.703Z,100411.75
2022-09-12T04:22:32.206Z,100412.59
2022-09-12T04:24:35.667Z,100411.63
2022-09-12T04:26:39.418Z,100410.59
2022-09-12T04:28:44.317Z,100419.50
2022-09-12T04:30:47.835Z,100428.19
2022-09-12T04:32:51.642Z,100434.25
2022-09-12T04:34:55.133Z,100423.56
2022-09-12T04:36:58.668Z,100435.94
2022-09-12T04:39:03.405Z,100429.59
2022-09-12T04:41:17.883Z,100427.78
2022-09-12T04:43:21.650Z,100425.09
2022-09-12T04:45:26.851Z,100427.63
2022-09-12T04:47:30.444Z,100430.28
2022-09-12T04:49:34.061Z,100426.75
2022-09-12T04:51:39.486Z,100423.97
2022-09-12T04:53:43.251Z,100425.63
2022-09-12T04:55:46.780Z,100425.63
2022-09-12T04:57:50.303Z,100430.97
2022-09-12T04:59:53.895Z,100427.31
2022-09-12T05:01:58.935Z,100425.63
2022-09-12T05:04:02.925Z,100433.50
2022-09-12T05:06:08.190Z,100425.47
2022-09-12T05:08:11.847Z,100438.84
2022-09-12T05:10:15.521Z,100441.81
2022-09-12T05:12:19.153Z,100444.41
2022-09-12T05:14:22.832Z,100445.25
2022-09-12T05:16:27.525Z,100453.03
2022-09-12T05:18:33.708Z,100453.91
2022-09-12T05:20:37.584Z,100459.13
2022-09-12T05:22:41.089Z,100456.16
2022-09-12T05:24:49.839Z,100455.88
2022-09-12T05:26:54.282Z,100457.44
2022-09-12T05:28:57.893Z,100467.72
2022-09-12T05:31:03.143Z,100461.81
2022-09-12T05:33:06.840Z,100461.25
2022-09-12T05:35:12.085Z,100459.56
2022-09-12T05:37:15.859Z,100472.06
2022-09-12T05:39:19.869Z,100469.53
2022-09-12T05:41:25.709Z,100464.34
2022-09-12T05:43:29.134Z,100467.97
2022-09-12T05:45:33.111Z,100469.69
2022-09-12T05:47:36.609Z,100473.31
2022-09-12T05:49:40.207Z,100472.34
2022-09-12T05:51:46.687Z,100473.19
2022-09-12T05:53:53.999Z,100469.69
2022-09-12T05:56:05.185Z,100475.84
2022-09-12T05:58:08.791Z,100479.38
2022-09-12T06:00:13.767Z,100479.25
2022-09-12T06:02:19.021Z,100471.94
2022-09-12T06:04:23.981Z,100473.59
2022-09-12T06:06:28.115Z,100476.28
2022-09-12T06:08:33.800Z,100473.59
2022-09-12T06:10:37.537Z,100471.66
2022-09-12T06:12:40.886Z,100481.38
2022-09-12T06:14:44.900Z,100480.09
2022-09-12T06:16:48.877Z,100482.63
2022-09-12T06:18:55.405Z,100490.34
2022-09-12T06:20:59.213Z,100487.38
2022-09-12T06:23:03.545Z,100494.28
2022-09-12T06:25:10.497Z,100483.44
2022-09-12T06:27:14.552Z,100483.28
2022-09-12T06:29:19.705Z,100482.47
2022-09-12T06:31:26.625Z,100494.69
2022-09-12T06:33:30.381Z,100498.22
2022-09-12T06:35:38.617Z,100497.22
2022-09-12T06:37:46.090Z,100496.25
2022-09-12T06:39:50.506Z,100511.28
2022-09-12T06:41:55.863Z,100503.25
2022-09-12T06:44:14.324Z,100503.19
2022-09-12T06:46:19.488Z,100501.19
2022-09-12T06:48:24.086Z,100493.88
2022-09-12T06:50:27.604Z,100499.78
2022-09-12T06:52:32.240Z,100503.00
2022-09-12T06:54:36.147Z,100500.03
2022-09-12T06:56:39.954Z,100504.25
2022-09-12T06:58:45.713Z,100505.81
2022-09-12T07:00:50.378Z,100501.16
2022-09-12T07:02:57.235Z,100509.88
2022-09-12T07:05:01.580Z,100509.59
2022-09-12T07:07:06.068Z,100508.47
2022-09-12T07:09:12.809Z,100520.69
2022-09-12T07:11:20.159Z,100519.41
2022-09-12T07:13:24.184Z,100513.78
2022-09-12T07:15:30.309Z,100527.16
2022-09-12T07:17:34.766Z,100519.84
2022-09-12T07:19:38.528Z,100520.53
2022-09-12T07:21:42.900Z,100523.03
2022-09-12T07:23:47.326Z,100519.25
2022-09-12T07:25:57.486Z,100525.31
2022-09-12T07:28:01.571Z,100525.31
2022-09-12T07:30:06.762Z,100524.44
2022-09-12T07:32:12.689Z,100531.63
2022-09-12T07:34:17.949Z,100525.88
2022-09-12T07:36:23.941Z,100525.59
2022-09-12T07:38:27.709Z,100525.91
2022-09-12T07:40:31.249Z,100532.38
2022-09-12T07:42:35.057Z,100526.63
2022-09-12T07:44:38.863Z,100525.34
2022-09-12T07:46:42.897Z,100530.25
2022-09-12T07:48:51.549Z,100534.31
2022-09-12T07:51:02.317Z,100534.00
2022-09-12T07:53:06.420Z,100533.03
2022-09-12T07:55:10.227Z,100533.75
2022-09-12T07:57:15.631Z,100534.44
2022-09-12T07:59:35.676Z,100533.31
2022-09-12T08:01:43.419Z,100537.66
2022-09-12T08:03:50.645Z,100544.16
2022-09-12T08:05:54.310Z,100544.44
2022-09-12T08:07:57.928Z,100534.00
2022-09-12T08:10:01.778Z,100539.50
2022-09-12T08:12:05.993Z,100545.00
2022-09-12T08:14:09.829Z,100549.69
2022-09-12T08:16:17.078Z,100545.31
2022-09-12T08:18:21.041Z,100555.72
2022-09-12T08:20:28.534Z,100548.66
2022-09-12T08:22:33.265Z,100540.78
2022-09-12T08:24:37.307Z,100542.22
2022-09-12T08:26:40.904Z,100546.72
2022-09-12T08:28:47.134Z,100541.66
2022-09-12T08:30:51.077Z,100547.59
2022-09-12T08:32:55.140Z,100549.84
2022-09-12T08:34:58.616Z,100552.50
2022-09-12T08:37:04.347Z,100553.22
2022-09-12T08:39:09.140Z,100553.78
2022-09-12T08:41:21.796Z,100551.50
2022-09-12T08:43:40.044Z,100546.59
2022-09-12T08:45:50.821Z,100553.34
2022-09-12T08:47:54.972Z,100552.88
2022-09-12T08:50:05.840Z,100556.66
2022-09-12T08:52:16.607Z,100564.41
2022-09-12T08:54:25.534Z,100565.09
2022-09-12T08:56:32.991Z,100563.28
2022-09-12T08:58:41.752Z,100563.28
2022-09-12T09:00:56.257Z,100569.19
2022-09-12T09:03:29.356Z,100576.06
2022-09-12T09:05:47.612Z,100579.63
2022-09-12T09:08:23.728Z,100581.28
2022-09-12T09:10:36.922Z,100571.81
2022-09-12T09:12:53.026Z,100575.88
2022-09-12T09:15:29.908Z,100579.84
2022-09-12T09:17:37.368Z,100578.97
2022-09-12T09:19:50.810Z,100582.53
2022-09-12T09:22:00.851Z,100587.19
2022-09-12T09:24:10.453Z,100583.22
2022-09-12T09:26:20.021Z,100578.72
2022-09-12T09:28:29.496Z,100586.31
2022-09-12T09:30:37.317Z,100587.41
2022-09-12T09:32:43.399Z,100580.22
2022-09-12T09:34:48.651Z,100583.16
2022-09-12T09:36:54.302Z,100584.28
2022-09-12T09:39:06.133Z,100583.84
2022-09-12T09:41:36.360Z,100592.16
2022-09-12T09:43:41.028Z,100595.97
2022-09-12T09:45:47.871Z,100598.09
2022-09-12T09:47:59.012Z,100596.53
2022-09-12T09:50:03.909Z,100595.56
2022-09-12T09:52:10.113Z,100602.59
2022-09-12T09:54:22.409Z,100597.94
2022-09-12T09:56:34.467Z,100600.63
2022-09-12T09:58:38.943Z,100607.50
2022-09-12T10:00:43.714Z,100614.72
2022-09-12T10:03:04.985Z,100620.47
2022-09-12T10:05:09.825Z,100614.97
2022-09-12T10:07:21.356Z,100614.97
2022-09-12T10:09:27.892Z,100609.50
2022-09-12T10:11:35.102Z,100610.50
2022-09-12T10:13:42.922Z,100610.34
2022-09-12T10:15:59.307Z,100606.69
2022-09-12T10:18:04.926Z,100616.41
2022-09-12T10:20:31.962Z,100616.88
2022-09-12T10:22:36.370Z,100607.88
2022-09-12T10:24:44.027Z,100611.69
2022-09-12T10:26:56.550Z,100617.31
2022-09-12T10:29:08.392Z,100619.31
2022-09-12T10:31:17.641Z,100619.72
2022-09-12T10:33:22.357Z,100619.28
2022-09-12T10:35:30.785Z,100628.13
2022-09-12T10:37:37.118Z,100631.06
2022-09-12T10:39:41.652Z,100628.66
2022-09-12T10:41:46.527Z,100626.25
2022-09-12T10:43:52.603Z,100637.09
2022-09-12T10:45:59.781Z,100631.31
2022-09-12T10:48:07.745Z,100631.03
2022-09-12T10:50:24.418Z,100631.56
2022-09-12T10:52:28.746Z,100634.50
2022-09-12T10:54:34.741Z,100629.22
2022-09-12T10:56:44.764Z,100637.78
2022-09-12T10:59:20.569Z,100632.19
2022-09-12T11:01:36.803Z,100630.22
2022-09-12T11:04:01.857Z,100630.94
2022-09-12T11:06:07.691Z,100630.78
2022-09-12T11:08:24.232Z,100628.25
2022-09-12T11:10:43.821Z,100632.72
2022-09-12T11:12:58.626Z,100641.44
2022-09-12T11:15:24.248Z,100642.16
2022-09-12T11:17:43.333Z,100636.16
2022-09-12T11:20:05.733Z,100639.84
2022-09-12T11:22:29.813Z,100639.72
2022-09-12T11:25:06.087Z,100643.53
2022-09-12T11:27:27.038Z,100641.00
2022-09-12T11:29:48.976Z,100644.97
2022-09-12T11:32:25.421Z,100646.34
2022-09-12T11:34:40.357Z,100646.19
2022-09-12T11:36:57.176Z,100649.66
2022-09-12T11:39:10.605Z,100651.38
2022-09-12T11:41:23.241Z,100643.47
2022-09-12T11:43:40.057Z,100646.31
2022-09-12T11:45:47.092Z,100651.97
2022-09-12T11:47:56.295Z,100646.19
2022-09-12T11:50:07.229Z,100645.78
2022-09-12T11:52:16.302Z,100654.38
2022-09-12T11:54:26.448Z,100659.31
2022-09-12T11:56:31.062Z,100653.41
2022-09-12T11:58:36.957Z,100653.69
2022-09-12T12:00:46.811Z,100650.44
2022-09-12T12:03:02.753Z,100653.13
2022-09-12T12:05:21.898Z,100654.25
2022-09-12T12:07:25.911Z,100657.78
2022-09-12T12:09:31.198Z,100656.50
2022-09-12T12:11:38.915Z,100657.91
2022-09-12T12:13:51.001Z,100651.97
2022-09-12T12:15:57.761Z,100647.91
2022-09-12T12:18:04.159Z,100653.13
2022-09-12T12:20:18.733Z,100651.56
2022-09-12T12:22:25.719Z,100645.22
2022-09-12T12:24:30.547Z,100649.75
2022-09-12T12:27:02.279Z,100655.66
2022-09-12T12:29:06.359Z,100661.16
2022-09-12T12:31:11.225Z,100650.47
2022-09-12T12:33:48.200Z,100651.44
2022-09-12T12:36:07.563Z,100658.50
2022-09-12T12:38:29.466Z,100656.22
2022-09-12T12:40:33.965Z,100659.00
2022-09-12T12:43:32.532Z,100660.94
2022-09-12T12:46:02.988Z,100661.22
2022-09-12T12:48:12.075Z,100665.72
2022-09-12T12:50:26.846Z,100677.94
2022-09-12T12:52:35.061Z,100675.53
2022-09-12T12:54:58.813Z,100674.72
2022-09-12T12:57:06.442Z,100678.22
2022-09-12T12:59:23.465Z,100682.88
2022-09-12T13:01:28.128Z,100683.44
2022-09-12T13:03:35.121Z,100681.78
2022-09-12T13:05:45.725Z,100688.66
2022-09-12T13:07:56.553Z,100684.44
2022-09-12T13:10:03.337Z,100682.19
2022-09-12T13:12:10.869Z,100686.84
2022-09-12T13:14:49.957Z,100692.94
2022-09-12T13:16:57.943Z,100692.94
2022-09-12T13:19:06.247Z,100703.34
2022-09-12T13:21:14.160Z,100692.22
2022-09-12T13:23:27.868Z,100698.03
2022-09-12T13:25:33.845Z,100694.75
2022-09-12T13:27:38.163Z,100694.06
2022-09-12T13:29:42.406Z,100698.44
2022-09-12T13:31:48.738Z,100699.84
2022-09-12T13:33:55.315Z,100700.41
2022-09-12T13:36:22.766Z,100701.56
2022-09-12T13:38:37.321Z,100695.50
2022-09-12T13:40:59.297Z,100693.50
2022-09-12T13:43:15.662Z,100695.34
2022-09-12T13:45:23.077Z,100705.97
2022-09-12T13:47:32.313Z,100704.94
2022-09-12T13:49:39.908Z,100701.97
2022-09-12T13:51:45.199Z,100710.13
2022-09-12T13:53:52.194Z,100710.00
2022-09-12T13:56:00.177Z,100701.44
2022-09-12T13:58:06.115Z,100711.25
2022-09-12T14:00:20.532Z,100717.19
2022-09-12T14:02:27.017Z,100706.50
2022-09-12T14:04:49.272Z,100709.03
2022-09-12T14:06:55.023Z,100712.28
2022-09-12T14:09:02.954Z,100705.69
2022-09-12T14:11:11.287Z,100704.94
2022-09-12T14:13:20.925Z,100703.00
2022-09-12T14:15:29.074Z,100704.56
2022-09-12T14:17:39.236Z,100703.69
2022-09-12T14:19:43.824Z,100703.16
2022-09-12T14:21:50.324Z,100701.75
2022-09-12T14:23:55.946Z,100704.00
2022-09-12T14:26:06.122Z,100704.03
2022-09-12T14:28:23.151Z,100700.53
2022-09-12T14:30:30.758Z,100704.88
2022-09-12T14:32:36.250Z,100698.78
2022-09-12T14:34:40.707Z,100707.16
2022-09-12T14:36:48.257Z,100703.78
2022-09-12T14:38:55.720Z,100702.94
2022-09-12T14:41:04.849Z,100702.41
2022-09-12T14:43:21.851Z,100700.00
2022-09-12T14:45:29.645Z,100700.72
2022-09-12T14:47:38.987Z,100708.47
2022-09-12T14:49:43.410Z,100705.22
2022-09-12T14:51:56.935Z,100712.53
2022-09-12T14:54:01.112Z,100709.69
2022-09-12T14:56:11.768Z,100704.63
2022-09-12T14:58:24.172Z,100715.16
2022-09-12T15:00:28.122Z,100711.03
2022-09-12T15:02:31.816Z,100704.66
2022-09-12T15:04:42.533Z,100712.78
2022-09-12T15:06:46.581Z,100717.28
2022-09-12T15:08:50.752Z,100718.13
2022-09-12T15:10:54.400Z,100722.34
2022-09-12T15:13:20.536Z,100716.72
2022-09-12T15:15:24.338Z,100715.22
2022-09-12T15:17:28.112Z,100724.53
2022-09-12T15:19:32.126Z,100720.00
2022-09-12T15:21:36.232Z,100736.06
2022-09-12T15:23:44.436Z,100735.59
2022-09-12T15:25:48.961Z,100737.94
2022-09-12T15:27:54.388Z,100728.91
2022-09-12T15:30:00.126Z,100736.59
2022-09-12T15:32:04.353Z,100732.72
2022-09-12T15:34:08.034Z,100731.41
2022-09-12T15:36:17.977Z,100729.03
2022-09-12T15:38:26.383Z,100735.78
2022-09-12T15:40:30.410Z,100733.13
2022-09-12T15:42:34.409Z,100727.78
2022-09-12T15:44:38.232Z,100727.31
2022-09-12T15:46:43.782Z,100729.56
2022-09-12T15:48:48.050Z,100729.81
2022-09-12T15:50:52.190Z,100738.81
2022-09-12T15:52:56.206Z,100733.38
2022-09-12T15:54:59.956Z,100736.13
2022-09-12T15:57:03.669Z,100736.41
2022-09-12T15:59:07.235Z,100736.41
2022-09-12T16:01:13.317Z,100744.00
2022-09-12T16:03:24.255Z,100741.00
2022-09-12T16:05:28.359Z,100738.09
2022-09-12T16:07:32.201Z,100741.47
2022-09-12T16:09:36.625Z,100736.66
2022-09-12T16:11:40.671Z,100741.63
2022-09-12T16:13:44.335Z,100737.88
2022-09-12T16:15:47.970Z,100738.09
2022-09-12T16:17:51.857Z,100738.63
2022-09-12T16:19:57.273Z,100747.72
2022-09-12T16:22:00.915Z,100744.34
2022-09-12T16:24:05.340Z,100744.09
2022-09-12T16:26:09.152Z,100750.88
2022-09-12T16:28:12.955Z,100743.56
2022-09-12T16:30:16.684Z,100750.09
2022-09-12T16:32:20.368Z,100751.31
2022-09-12T16:34:24.368Z,100749.03
2022-09-12T16:36:29.596Z,100751.44
2022-09-12T16:38:33.931Z,100756.06
2022-09-12T16:40:37.700Z,100748.44
2022-09-12T16:42:43.762Z,100752.19
2022-09-12T16:44:47.897Z,100756.19
2022-09-12T16:46:51.593Z,100757.88
2022-09-12T16:48:57.052Z,100758.59
2022-09-12T16:51:02.325Z,100752.81
2022-09-12T16:53:07.930Z,100750.25
2022-09-12T16:55:11.535Z,100753.19
2022-09-12T16:57:15.106Z,100752.59
2022-09-12T16:59:18.674Z,100762.03
2022-09-12T17:01:24.101Z,100760.94
2022-09-12T17:03:27.761Z,100757.63
2022-09-12T17:05:31.516Z,100758.34
2022-09-12T17:07:35.520Z,100759.94
2022-09-12T17:09:41.430Z,100758.56
2022-09-12T17:11:49.828Z,100756.66
2022-09-12T17:14:11.337Z,100755.28
2022-09-12T17:16:15.516Z,100762.03
2022-09-12T17:18:19.688Z,100766.50
2022-09-12T17:20:23.362Z,100769.31
2022-09-12T17:22:27.210Z,100772.38
2022-09-12T17:24:31.395Z,100764.78
2022-09-12T17:26:37.291Z,100766.13
2022-09-12T17:28:44.297Z,100769.50
2022-09-12T17:30:49.065Z,100773.03
2022-09-12T17:32:54.541Z,100769.66
2022-09-12T17:34:58.756Z,100772.88
2022-09-12T17:37:02.589Z,100771.91
2022-09-12T17:39:07.146Z,100768.53
2022-09-12T17:41:16.206Z,100779.66
2022-09-12T17:43:22.157Z,100774.09
2022-09-12T17:45:27.003Z,100778.31
2022-09-12T17:47:31.430Z,100773.81
2022-09-12T17:49:35.928Z,100781.56
2022-09-12T17:51:41.521Z,100785.09
2022-09-12T17:53:46.142Z,100787.88
2022-09-12T17:55:54.253Z,100796.34
2022-09-12T17:58:01.094Z,100791.00
2022-09-12T18:00:08.128Z,100792.56
2022-09-12T18:02:14.731Z,100791.34
2022-09-12T18:04:20.281Z,100794.47
2022-09-12T18:06:24.573Z,100791.66
2022-09-12T18:08:29.364Z,100794.47
2022-09-12T18:10:33.610Z,100799.66
2022-09-12T18:12:37.921Z,100802.94
2022-09-12T18:14:42.362Z,100797.00
2022-09-12T18:16:48.128Z,100805.16
2022-09-12T18:18:52.576Z,100806.25
2022-09-12T18:20:56.933Z,100804.53
2022-09-12T18:23:01.603Z,100808.78
2022-09-12T18:25:06.426Z,100803.19
2022-09-12T18:27:10.731Z,100804.59
2022-09-12T18:29:17.429Z,100800.97
2022-09-12T18:31:23.869Z,100805.22
2022-09-12T18:33:29.800Z,100809.56
2022-09-12T18:35:34.123Z,100814.91
2022-09-12T18:37:38.514Z,100804.50
2022-09-12T18:39:42.746Z,100804.59
2022-09-12T18:41:47.620Z,100809.94
2022-09-12T18:43:56.246Z,100818.97
2022-09-12T18:46:04.769Z,100813.75
2022-09-12T18:48:09.955Z,100811.09
2022-09-12T18:50:15.872Z,100821.75
2022-09-12T18:52:20.181Z,100820.91
2022-09-12T18:54:24.803Z,100821.75
2022-09-12T18:56:33.767Z,100824.53
2022-09-12T18:58:48.131Z,100818.63
2022-09-12T19:00:54.567Z,100820.00
2022-09-12T19:02:58.530Z,100821.94
2022-09-12T19:05:03.109Z,100832.03
2022-09-12T19:07:09.260Z,100836.63
2022-09-12T19:09:15.603Z,100829.72
2022-09-12T19:11:21.055Z,100844.03
2022-09-12T19:13:26.173Z,100847.72
2022-09-12T19:15:30.800Z,100845.28
2022-09-12T19:17:35.273Z,100849.78
2022-09-12T19:19:40.706Z,100850.75
2022-09-12T19:21:45.751Z,100854.97
2022-09-12T19:23:51.971Z,100864.56
2022-09-12T19:25:59.725Z,100858.38
2022-09-12T19:28:06.121Z,100859.22
2022-09-12T19:30:12.503Z,100864.56
2022-09-12T19:32:16.974Z,100871.34
2022-09-12T19:34:21.406Z,100871.06
2022-09-12T19:36:45.469Z,100870.94
2022-09-12T19:38:52.334Z,100877.84
2022-09-12T19:40:59.890Z,100884.63
2022-09-12T19:43:04.619Z,100884.63
2022-09-12T19:45:09.422Z,100888.88
2022-09-12T19:47:13.625Z,100888.03
2022-09-12T19:49:17.931Z,100891.41
2022-09-12T19:51:24.314Z,100886.94
2022-09-12T19:53:28.769Z,100901.13
2022-09-12T19:55:38.410Z,100895.78
2022-09-12T19:57:43.015Z,100904.63
2022-09-12T19:59:48.305Z,100905.50
2022-09-12T20:01:52.758Z,100906.44
2022-09-12T20:03:57.428Z,100907.28
2022-09-12T20:06:04.788Z,100916.16
2022-09-12T20:08:09.621Z,100917.13
2022-09-12T20:10:14.561Z,100919.94
2022-09-12T20:12:20.443Z,100921.03
2022-09-12T20:14:25.054Z,100918.38
2022-09-12T20:16:30.621Z,100924.66
2022-09-12T20:18:35.100Z,100918.50
2022-09-12T20:20:39.389Z,100922.25
2022-09-12T20:22:43.704Z,100928.56
2022-09-12T20:24:48.261Z,100921.66
2022-09-12T20:26:53.165Z,100923.47
2022-09-12T20:28:59.325Z,100922.88
2022-09-12T20:31:04.368Z,100918.63
2022-09-12T20:33:08.965Z,100914.44
2022-09-12T20:35:13.311Z,100922.09
2022-09-12T20:37:17.900Z,100916.13
2022-09-12T20:39:23.477Z,100921.84
2022-09-12T20:41:29.590Z,100922.19
2022-09-12T20:43:34.144Z,100921.72
2022-09-12T20:45:44.056Z,100921.13
2022-09-12T20:47:48.590Z,100932.03
2022-09-12T20:49:53.517Z,100925.25
2022-09-12T20:51:57.877Z,100933.47
2022-09-12T20:54:06.928Z,100931.31
2022-09-12T20:56:11.598Z,100932.53
2022-09-12T20:58:16.219Z,100933.63
2022-09-12T21:00:20.510Z,100926.00
2022-09-12T21:02:27.079Z,100926.22
2022-09-12T21:04:31.708Z,100919.44
2022-09-12T21:06:36.887Z,100922.34
2022-09-12T21:08:42.605Z,100925.28
2022-09-12T21:10:47.046Z,100929.03
2022-09-12T21:12:51.329Z,100929.16
2022-09-12T21:14:55.914Z,100929.38
2022-09-12T21:17:00.801Z,100931.31
2022-09-12T21:19:08.029Z,100933.22
2022-09-12T21:21:13.816Z,100932.41
2022-09-12T21:23:19.650Z,100932.78
2022-09-12T21:25:24.904Z,100934.56
2022-09-12T21:27:29.540Z,100937.34
2022-09-12T21:29:34.993Z,100938.22
2022-09-12T21:31:39.668Z,100943.56
2022-09-12T21:33:44.075Z,100937.34
2022-09-12T21:35:50.839Z,100949.72
2022-09-12T21:37:55.969Z,100945.22
2022-09-12T21:40:00.481Z,100948.75
2022-09-12T21:42:04.643Z,100954.81
2022-09-12T21:44:09.048Z,100960.00
2022-09-12T21:46:13.830Z,100953.72
2022-09-12T21:48:17.477Z,100953.47
2022-09-12T21:50:21.547Z,100956.88
2022-09-12T21:52:27.877Z,100966.47
2022-09-12T21:54:31.757Z,100954.94
2022-09-12T21:56:35.672Z,100959.19
2022-09-12T21:58:39.618Z,100963.56
2022-09-12T22:00:44.139Z,100968.75
2022-09-12T22:02:49.543Z,100970.72
2022-09-12T22:04:53.828Z,100973.25
2022-09-12T22:06:57.815Z,100967.91
2022-09-12T22:09:02.925Z,100975.91
2022-09-12T22:11:09.799Z,100971.78
2022-09-12T22:13:13.754Z,100965.00
2022-09-12T22:15:39.617Z,100971.53
2022-09-12T22:17:41.842Z,100965.72
2022-09-12T22:19:46.057Z,100971.28
2022-09-12T22:22:07.459Z,100970.03
2022-09-12T22:24:32.112Z,100971.38
2022-09-12T22:26:43.225Z,100971.72
2022-09-12T22:28:47.799Z,100972.81
2022-09-12T22:30:52.958Z,100977.50
2022-09-12T22:32:57.637Z,100979.47
2022-09-12T22:35:01.925Z,100984.03
2022-09-12T22:37:06.055Z,100982.44
2022-09-12T22:39:10.731Z,100980.91
2022-09-12T22:41:16.751Z,100979.19
2022-09-12T22:43:20.800Z,100997.31
2022-09-12T22:45:25.066Z,100986.03
2022-09-12T22:47:29.298Z,100997.69
2022-09-12T22:49:33.879Z,100993.44
2022-09-12T22:51:38.216Z,100999.72
2022-09-12T22:53:42.606Z,100994.63
2022-09-12T22:55:46.787Z,101003.78
2022-09-12T22:57:52.593Z,101001.31
2022-09-12T22:59:57.494Z,100996.22
2022-09-12T23:02:01.885Z,101002.63
2022-09-12T23:04:06.967Z,101010.00
2022-09-12T23:06:11.626Z,101015.53
2022-09-12T23:08:16.185Z,101014.94
2022-09-12T23:10:20.327Z,101016.94
2022-09-12T23:12:24.376Z,101021.63
2022-09-12T23:14:29.942Z,101015.72
2022-09-12T23:16:34.300Z,101019.56
2022-09-12T23:18:39.230Z,101011.81
2022-09-12T23:20:43.451Z,101013.00
2022-09-12T23:22:47.565Z,101013.28
2022-09-12T23:24:51.802Z,101017.03
2022-09-12T23:26:56.075Z,101014.59
2022-09-12T23:29:02.010Z,101009.38
2022-09-12T23:31:10.105Z,101012.16
2022-09-12T23:33:14.169Z,101009.69
2022-09-12T23:35:20.074Z,101014.41
2022-09-12T23:37:24.434Z,101012.94
2022-09-12T23:39:28.724Z,101015.06
2022-09-12T23:41:33.984Z,101006.56
2022-09-12T23:43:38.487Z,101014.66
2022-09-12T23:45:42.885Z,101007.84
2022-09-12T23:47:48.626Z,101005.41
2022-09-12T23:49:52.560Z,101009.13
2022-09-12T23:51:56.576Z,101010.94
2022-09-12T23:54:00.932Z,101009.47
2022-09-12T23:56:06.229Z,101005.09
2022-09-12T23:58:11.743Z,101000.00
